createdAt,value
2019-04-26T00:04:16.243Z,99859.06
2019-04-26T00:07:03.259Z,99867.57
2019-04-26T00:10:07.440Z,99891.30
2019-04-26T00:13:12.599Z,99890.61
2019-04-26T00:16:36.403Z,99893.97
2019-04-26T00:18:44.403Z,99891.41
2019-04-26T00:22:39.902Z,99871.11
2019-04-26T00:24:38.445Z,99864.44
2019-04-26T00:27:21.302Z,99854.07
2019-04-26T00:29:58.880Z,99877.90
2019-04-26T00:32:27.594Z,99904.09
2019-04-26T00:34:56.312Z,99925.51
2019-04-26T00:37:25.026Z,99927.17
2019-04-26T00:39:53.630Z,99914.73
2019-04-26T00:42:22.729Z,99903.21
2019-04-26T00:44:51.486Z,99891.69
2019-04-26T00:47:21.151Z,99878.52
2019-04-26T00:49:50.392Z,99882.41
2019-04-26T00:52:19.569Z,99898.34
2019-04-26T00:54:48.378Z,99919.02
2019-04-26T00:57:18.281Z,99941.11
2019-04-26T00:59:47.880Z,99935.25
2019-04-26T01:02:22.820Z,99942.63
2019-04-26T01:04:51.532Z,99938.65
2019-04-26T01:07:21.164Z,99949.34
2019-04-26T01:09:50.173Z,99944.00
2019-04-26T01:12:19.714Z,99937.92
2019-04-26T01:14:48.473Z,99933.41
2019-04-26T01:17:18.600Z,99927.55
2019-04-26T01:19:49.119Z,99924.34
2019-04-26T01:22:21.806Z,99923.00
2019-04-26T01:24:50.673Z,99928.56
2019-04-26T01:27:21.317Z,99939.05
2019-04-26T01:29:51.871Z,99930.01
2019-04-26T01:32:21.987Z,99924.77
2019-04-26T01:34:51.985Z,99917.14
2019-04-26T01:37:20.773Z,99919.63
2019-04-26T01:39:54.876Z,99918.08
2019-04-26T01:42:36.597Z,99922.28
2019-04-26T01:45:14.261Z,99931.75
2019-04-26T01:47:43.270Z,99933.51
2019-04-26T01:50:12.977Z,99924.58
2019-04-26T01:52:43.012Z,99922.29
2019-04-26T01:55:12.535Z,99917.89
2019-04-26T01:57:41.719Z,99925.80
2019-04-26T02:00:32.038Z,99928.25
2019-04-26T02:03:04.255Z,99918.70
2019-04-26T02:05:32.955Z,99919.12
2019-04-26T02:08:01.632Z,99932.78
2019-04-26T02:10:30.716Z,99932.17
2019-04-26T02:13:00.886Z,99929.39
2019-04-26T02:15:33.356Z,99936.58
2019-04-26T02:18:02.520Z,99933.19
2019-04-26T02:20:50.558Z,99943.59
2019-04-26T02:23:26.367Z,99946.37
2019-04-26T02:25:55.118Z,99968.77
2019-04-26T02:28:25.533Z,99965.81
2019-04-26T02:30:54.659Z,99964.05
2019-04-26T02:33:25.299Z,99965.60
2019-04-26T02:35:54.394Z,99981.03
2019-04-26T02:38:23.086Z,99984.62
2019-04-26T02:40:52.562Z,99975.25
2019-04-26T02:43:23.010Z,99965.50
2019-04-26T02:46:16.797Z,99968.68
2019-04-26T02:49:07.924Z,99970.20
2019-04-26T02:51:41.363Z,99975.05
2019-04-26T02:54:18.866Z,99978.84
2019-04-26T02:56:48.793Z,99990.56
2019-04-26T02:59:32.455Z,99991.89
2019-04-26T03:02:03.745Z,99997.03
2019-04-26T03:04:34.619Z,99999.72
2019-04-26T03:07:09.499Z,99989.84
2019-04-26T03:09:40.229Z,99991.07
2019-04-26T03:12:13.259Z,99986.88
2019-04-26T03:15:12.777Z,99986.95
2019-04-26T03:17:45.831Z,99986.22
2019-04-26T03:20:16.408Z,99992.52
2019-04-26T03:22:53.267Z,100001.16
2019-04-26T03:25:40.655Z,100006.83
2019-04-26T03:28:24.220Z,99999.75
2019-04-26T03:31:04.794Z,99993.23
2019-04-26T03:34:34.277Z,99995.09
2019-04-26T03:37:56.375Z,99987.78
2019-04-26T03:40:44.654Z,99969.87
2019-04-26T03:43:34.326Z,99969.66
2019-04-26T03:46:33.581Z,99976.45
2019-04-26T03:49:47.056Z,99984.09
2019-04-26T03:52:36.974Z,99992.28
2019-04-26T03:55:29.432Z,99985.09
2019-04-26T03:58:04.218Z,99982.80
2019-04-26T04:00:43.397Z,99979.30
2019-04-26T04:03:48.214Z,99984.13
2019-04-26T04:06:23.188Z,99991.55
2019-04-26T04:08:59.887Z,99990.89
2019-04-26T04:11:37.499Z,99989.72
2019-04-26T04:14:19.225Z,99995.13
2019-04-26T04:17:06.438Z,99991.84
2019-04-26T04:20:11.070Z,100001.27
2019-04-26T04:22:45.838Z,100006.18
2019-04-26T04:25:19.256Z,100008.43
2019-04-26T04:27:58.645Z,100011.81
2019-04-26T04:30:53.344Z,100021.69
2019-04-26T04:33:29.153Z,100023.87
2019-04-26T04:36:03.959Z,100024.80
2019-04-26T04:38:53.509Z,100014.80
2019-04-26T04:41:41.048Z,100008.41
2019-04-26T04:44:22.465Z,100020.88
2019-04-26T04:47:31.629Z,100021.09
2019-04-26T04:50:16.544Z,100024.48
2019-04-26T04:53:26.149Z,100027.95
2019-04-26T04:56:36.031Z,100029.34
2019-04-26T04:59:10.458Z,100019.56
2019-04-26T05:02:35.085Z,100022.12
2019-04-26T05:05:39.976Z,100025.63
2019-04-26T05:08:18.179Z,100034.90
2019-04-26T05:10:56.235Z,100031.31
2019-04-26T05:13:46.280Z,100037.72
2019-04-26T05:16:44.967Z,100044.37
2019-04-26T05:19:48.533Z,100045.50
2019-04-26T05:23:02.177Z,100046.95
2019-04-26T05:26:25.761Z,100047.27
2019-04-26T05:29:46.581Z,100054.06
2019-04-26T05:32:52.909Z,100060.87
2019-04-26T05:35:51.045Z,100072.30
2019-04-26T05:39:06.912Z,100066.11
2019-04-26T05:42:10.455Z,100068.78
2019-04-26T05:45:35.007Z,100065.89
2019-04-26T05:48:35.226Z,100073.92
2019-04-26T05:51:46.011Z,100073.82
2019-04-26T05:55:06.965Z,100069.30
2019-04-26T05:58:07.339Z,100068.36
2019-04-26T06:01:08.711Z,100075.96
2019-04-26T06:04:28.360Z,100081.31
2019-04-26T06:07:15.761Z,100100.81
2019-04-26T06:10:18.944Z,100120.89
2019-04-26T06:13:29.792Z,100133.73
2019-04-26T06:16:23.264Z,100144.77
2019-04-26T06:19:09.783Z,100149.39
2019-04-26T06:21:57.916Z,100151.64
2019-04-26T06:24:53.976Z,100150.21
2019-04-26T06:28:00.597Z,100152.14
2019-04-26T06:30:54.407Z,100150.82
2019-04-26T06:33:49.911Z,100154.81
2019-04-26T06:36:25.969Z,100155.14
2019-04-26T06:39:20.253Z,100146.03
2019-04-26T06:42:13.484Z,100140.20
2019-04-26T06:45:40.033Z,100141.98
2019-04-26T06:48:21.371Z,100139.79
2019-04-26T06:50:59.809Z,100129.94
2019-04-26T06:53:57.145Z,100132.47
2019-04-26T06:57:10.589Z,100131.66
2019-04-26T07:00:16.477Z,100126.31
2019-04-26T07:03:23.348Z,100134.56
2019-04-26T07:05:59.035Z,100153.58
2019-04-26T07:09:00.560Z,100157.16
2019-04-26T07:12:27.763Z,100145.14
2019-04-26T07:16:16.479Z,100163.77
2019-04-26T07:19:34.798Z,100177.84
2019-04-26T07:22:40.597Z,100168.15
2019-04-26T07:25:55.781Z,100174.90
2019-04-26T07:29:11.172Z,100174.98
2019-04-26T07:32:00.785Z,100186.13
2019-04-26T07:35:09.776Z,100187.58
2019-04-26T07:39:10.561Z,100195.81
2019-04-26T07:42:21.102Z,100205.48
2019-04-26T07:45:56.768Z,100205.91
2019-04-26T07:49:36.781Z,100213.44
2019-04-26T07:52:43.876Z,100223.42
2019-04-26T07:55:49.270Z,100224.75
2019-04-26T07:59:51.215Z,100206.03
2019-04-26T08:02:51.602Z,100207.15
2019-04-26T08:05:46.534Z,100229.57
2019-04-26T08:08:28.760Z,100228.22
2019-04-26T08:11:34.741Z,100219.98
2019-04-26T08:14:12.591Z,100212.67
2019-04-26T08:20:36.767Z,100199.58
2019-04-26T08:23:14.566Z,100203.28
2019-04-26T08:25:39.006Z,100214.13
2019-04-26T08:28:09.969Z,100226.58
2019-04-26T08:30:44.921Z,100226.87
2019-04-26T08:33:16.109Z,100220.82
2019-04-26T08:35:48.937Z,100228.22
2019-04-26T08:38:22.312Z,100233.59
2019-04-26T08:40:48.454Z,100242.65
2019-04-26T08:43:27.324Z,100257.20
2019-04-26T08:46:16.968Z,100259.66
2019-04-26T08:49:02.161Z,100261.41
2019-04-26T08:51:31.726Z,100267.91
2019-04-26T08:54:01.424Z,100264.99
2019-04-26T08:56:33.923Z,100264.41
2019-04-26T08:59:08.906Z,100260.79
2019-04-26T09:01:46.686Z,100264.80
2019-04-26T09:04:30.663Z,100266.77
2019-04-26T09:07:10.965Z,100281.26
2019-04-26T09:09:41.281Z,100280.15
2019-04-26T09:12:22.486Z,100285.62
2019-04-26T09:14:47.534Z,100288.90
2019-04-26T09:17:16.331Z,100290.77
2019-04-26T09:19:45.060Z,100286.32
2019-04-26T09:22:22.627Z,100289.62
2019-04-26T09:24:59.499Z,100284.80
2019-04-26T09:27:38.652Z,100288.73
2019-04-26T09:30:34.395Z,100292.72
2019-04-26T09:33:10.500Z,100302.75
2019-04-26T09:35:39.421Z,100300.67
2019-04-26T09:38:08.204Z,100302.53
2019-04-26T09:40:36.811Z,100305.41
2019-04-26T09:43:20.039Z,100304.19
2019-04-26T09:46:04.893Z,100301.41
2019-04-26T09:48:37.484Z,100313.34
2019-04-26T09:51:06.775Z,100305.80
2019-04-26T09:53:35.415Z,100312.72
2019-04-26T09:56:04.170Z,100313.30
2019-04-26T09:58:32.969Z,100316.23
2019-04-26T10:01:01.747Z,100305.83
2019-04-26T10:03:30.522Z,100307.69
2019-04-26T10:05:59.234Z,100298.09
2019-04-26T10:08:27.859Z,100302.74
2019-04-26T10:10:56.509Z,100293.55
2019-04-26T10:13:32.839Z,100286.85
2019-04-26T10:16:33.507Z,100303.06
2019-04-26T10:19:08.355Z,100303.34
2019-04-26T10:21:36.986Z,100309.44
2019-04-26T10:24:08.186Z,100317.38
2019-04-26T10:26:36.130Z,100330.38
2019-04-26T10:29:05.116Z,100332.63
2019-04-26T10:31:33.784Z,100329.66
2019-04-26T10:34:02.676Z,100328.41
2019-04-26T10:36:31.523Z,100322.11
2019-04-26T10:39:01.435Z,100327.18
2019-04-26T10:41:30.226Z,100336.95
2019-04-26T10:43:58.891Z,100332.13
2019-04-26T10:46:28.290Z,100334.92
2019-04-26T10:49:08.286Z,100336.97
2019-04-26T10:51:38.586Z,100334.18
2019-04-26T10:54:16.194Z,100332.00
2019-04-26T10:56:59.235Z,100323.02
2019-04-26T10:59:45.918Z,100323.34
2019-04-26T11:02:17.912Z,100318.20
2019-04-26T11:04:47.761Z,100315.41
2019-04-26T11:07:16.557Z,100313.95
2019-04-26T11:09:45.337Z,100316.30
2019-04-26T11:12:15.714Z,100309.05
2019-04-26T11:14:44.539Z,100309.09
2019-04-26T11:17:16.036Z,100314.27
2019-04-26T11:19:45.951Z,100312.95
2019-04-26T11:22:14.701Z,100313.95
2019-04-26T11:24:43.430Z,100312.94
2019-04-26T11:27:12.312Z,100314.27
2019-04-26T11:29:40.871Z,100317.86
2019-04-26T11:32:09.762Z,100313.46
2019-04-26T11:34:38.394Z,100313.78
2019-04-26T11:37:08.380Z,100309.64
2019-04-26T11:39:40.492Z,100304.16
2019-04-26T11:42:07.919Z,100315.79
2019-04-26T11:45:17.316Z,100310.47
2019-04-26T11:47:55.806Z,100312.70
2019-04-26T11:50:17.850Z,100313.94
2019-04-26T11:53:47.769Z,100321.27
2019-04-26T11:56:20.405Z,100313.06
2019-04-26T11:58:52.425Z,100311.23
2019-04-26T12:01:21.486Z,100317.41
2019-04-26T12:04:07.802Z,100320.12
2019-04-26T12:06:49.177Z,100318.87
2019-04-26T12:09:31.160Z,100328.03
2019-04-26T12:12:22.349Z,100323.09
2019-04-26T12:14:54.783Z,100326.23
2019-04-26T12:17:23.509Z,100332.59
2019-04-26T12:19:53.327Z,100336.06
2019-04-26T12:22:22.146Z,100345.27
2019-04-26T12:24:51.015Z,100344.36
2019-04-26T12:27:19.892Z,100342.65
2019-04-26T12:29:49.817Z,100342.50
2019-04-26T12:32:18.803Z,100343.95
2019-04-26T12:34:47.487Z,100346.87
2019-04-26T12:37:19.891Z,100347.29
2019-04-26T12:39:46.739Z,100348.35
2019-04-26T12:42:21.746Z,100351.55
2019-04-26T12:48:45.958Z,100363.32
2019-04-26T12:51:28.592Z,100374.91
2019-04-26T12:57:18.086Z,100366.71
2019-04-26T13:00:03.678Z,100364.03
2019-04-26T13:02:32.481Z,100354.26
2019-04-26T13:05:01.550Z,100349.94
2019-04-26T13:07:33.494Z,100354.42
2019-04-26T13:10:37.814Z,100358.80
2019-04-26T13:13:22.163Z,100352.08
2019-04-26T13:16:26.299Z,100351.90
2019-04-26T13:20:24.353Z,100348.44
2019-04-26T13:22:59.387Z,100363.89
2019-04-26T13:25:39.998Z,100364.78
2019-04-26T14:32:53.116Z,100358.58
2019-04-26T14:35:57.968Z,100363.39
2019-04-26T14:41:58.306Z,100374.67
2019-04-26T14:44:27.072Z,100380.56
2019-04-26T14:47:13.926Z,100377.37
2019-04-26T15:06:57.885Z,100379.89
2019-04-26T15:09:29.699Z,100382.35
2019-04-26T15:12:46.186Z,100383.86
2019-04-26T15:15:09.207Z,100388.47
2019-04-26T15:18:00.738Z,100384.53
2019-04-26T15:21:22.831Z,100387.12
2019-04-26T15:24:02.885Z,100388.20
2019-04-26T15:26:32.756Z,100396.72
2019-04-26T15:29:26.760Z,100397.88
2019-04-26T15:31:53.784Z,100390.34
2019-04-26T15:34:23.637Z,100384.07
2019-04-26T15:36:54.981Z,100373.42
2019-04-26T15:39:39.849Z,100380.91
2019-04-26T15:42:31.476Z,100371.02
2019-04-26T15:45:25.034Z,100373.55
2019-04-26T15:48:08.437Z,100371.73
2019-04-26T15:50:48.467Z,100376.21
2019-04-26T15:53:23.989Z,100379.13
2019-04-26T15:56:05.599Z,100380.14
2019-04-26T15:58:38.671Z,100386.19
2019-04-26T16:01:13.883Z,100377.20
2019-04-26T16:03:49.690Z,100381.39
2019-04-26T16:06:20.258Z,100386.45
2019-04-26T16:08:49.118Z,100384.56
2019-04-26T16:11:19.990Z,100386.70
2019-04-26T16:13:52.200Z,100399.00
2019-04-26T16:16:20.649Z,100399.00
2019-04-26T16:18:53.965Z,100402.87
2019-04-26T16:21:22.089Z,100403.46
2019-04-26T16:23:55.354Z,100403.46
2019-04-26T16:26:23.530Z,100394.93
2019-04-26T16:29:24.419Z,100394.93
2019-04-26T16:32:12.503Z,100395.41
2019-04-26T16:34:47.542Z,100389.37
2019-04-26T16:37:14.963Z,100393.78
2019-04-26T16:39:48.406Z,100391.78
2019-04-26T16:42:15.698Z,100397.95
2019-04-26T16:44:45.046Z,100388.95
2019-04-26T16:48:06.448Z,100380.65
2019-04-26T16:50:44.299Z,100379.81
2019-04-26T16:53:23.214Z,100385.09
2019-04-26T16:55:49.225Z,100382.92
2019-04-26T16:58:08.614Z,100390.64
2019-04-26T17:00:50.142Z,100394.94
2019-04-26T17:03:08.221Z,100400.53
2019-04-26T17:05:47.762Z,100397.75
2019-04-26T17:08:10.177Z,100397.94
2019-04-26T17:10:38.110Z,100402.36
2019-04-26T17:13:06.895Z,100397.04
2019-04-26T17:15:35.696Z,100403.69
2019-04-26T17:18:04.525Z,100404.47
2019-04-26T17:20:33.998Z,100420.80
2019-04-26T17:23:18.944Z,100415.12
2019-04-26T17:26:22.430Z,100417.27
2019-04-26T17:28:52.181Z,100420.43
2019-04-26T17:31:22.838Z,100417.36
2019-04-26T17:33:51.799Z,100415.45
2019-04-26T17:36:20.581Z,100416.89
2019-04-26T17:38:50.563Z,100417.14
2019-04-26T17:41:19.531Z,100417.84
2019-04-26T17:43:52.101Z,100415.28
2019-04-26T17:46:19.992Z,100416.63
2019-04-26T17:48:50.629Z,100415.47
2019-04-26T17:51:22.959Z,100417.31
2019-04-26T17:53:58.749Z,100412.47
2019-04-26T17:56:21.499Z,100413.16
2019-04-26T17:58:54.250Z,100406.66
2019-04-26T18:01:39.881Z,100406.66
2019-04-26T18:03:55.604Z,100402.06
2019-04-26T18:06:29.457Z,100406.06
2019-04-26T18:08:54.977Z,100415.09
2019-04-26T18:11:24.928Z,100419.22
2019-04-26T18:13:53.221Z,100417.88
2019-04-26T18:16:25.071Z,100413.41
2019-04-26T18:19:12.751Z,100418.05
2019-04-26T18:21:56.544Z,100424.87
2019-04-26T18:24:23.460Z,100433.44
2019-04-26T18:26:58.907Z,100438.16
2019-04-26T18:29:25.201Z,100432.82
2019-04-26T18:31:53.622Z,100447.24
2019-04-26T18:34:23.186Z,100453.14
2019-04-26T18:36:51.824Z,100452.30
2019-04-26T18:39:22.834Z,100452.52
2019-04-26T18:41:50.828Z,100464.48
2019-04-26T18:44:19.513Z,100462.70
2019-04-26T18:46:53.650Z,100460.87
2019-04-26T18:49:24.597Z,100461.58
2019-04-26T18:51:52.677Z,100464.16
2019-04-26T18:54:29.766Z,100469.62
2019-04-26T18:57:00.167Z,100476.33
2019-04-26T18:59:28.802Z,100475.81
2019-04-26T19:01:57.542Z,100476.03
2019-04-26T19:04:26.170Z,100482.62
2019-04-26T19:06:54.862Z,100488.21
2019-04-26T19:09:26.312Z,100484.50
2019-04-26T19:11:56.223Z,100489.25
2019-04-26T19:14:49.313Z,100485.09
2019-04-26T19:17:18.390Z,100497.24
2019-04-26T19:20:11.539Z,100490.42
2019-04-26T19:22:41.561Z,100493.22
2019-04-26T19:25:20.911Z,100484.66
2019-04-26T19:27:48.192Z,100482.31
2019-04-26T19:30:12.741Z,100487.17
2019-04-26T19:32:41.511Z,100480.67
2019-04-26T19:35:13.867Z,100482.16
2019-04-26T19:37:40.548Z,100482.56
2019-04-26T19:40:10.703Z,100490.03
2019-04-26T19:42:39.777Z,100488.87
2019-04-26T19:45:16.666Z,100487.12
2019-04-26T19:48:03.134Z,100489.58
2019-04-26T19:50:42.040Z,100487.05
2019-04-26T19:53:28.298Z,100492.00
2019-04-26T19:56:27.491Z,100491.46
2019-04-26T19:58:57.604Z,100490.03
2019-04-26T20:01:24.794Z,100499.17
2019-04-26T20:03:55.322Z,100491.88
2019-04-26T20:06:26.665Z,100498.34
2019-04-26T20:08:55.215Z,100492.89
2019-04-26T20:11:23.950Z,100505.27
2019-04-26T20:13:55.203Z,100503.08
2019-04-26T20:16:25.811Z,100495.16
2019-04-26T20:18:54.058Z,100496.16
2019-04-26T20:21:22.782Z,100500.16
2019-04-26T20:23:54.207Z,100496.25
2019-04-26T20:26:22.578Z,100491.97
2019-04-26T20:28:51.549Z,100500.09
2019-04-26T20:31:37.543Z,100506.47
2019-04-26T20:34:10.950Z,100509.18
2019-04-26T20:36:47.342Z,100511.97
2019-04-26T20:39:38.636Z,100508.40
2019-04-26T20:42:13.354Z,100512.13
2019-04-26T20:45:11.342Z,100516.56
2019-04-26T20:47:41.691Z,100518.17
2019-04-26T20:50:47.418Z,100526.14
2019-04-26T20:53:48.968Z,100541.13
2019-04-26T20:56:28.928Z,100539.79
2019-04-26T21:00:01.948Z,100536.69
2019-04-26T21:05:46.083Z,100526.72
2019-04-26T21:10:00.941Z,100524.42
2019-04-26T21:11:59.054Z,100515.17
2019-04-26T21:15:15.676Z,100499.38
2019-04-26T21:17:51.974Z,100491.94
2019-04-26T21:20:36.232Z,100486.88
2019-04-26T21:23:04.321Z,100481.19
2019-04-26T21:26:21.714Z,100482.75
2019-04-26T21:29:07.588Z,100480.41
2019-04-26T21:32:04.394Z,100478.14
2019-04-26T21:34:44.430Z,100480.44
2019-04-26T21:40:43.761Z,100491.46
2019-04-26T21:46:20.191Z,100491.73
2019-04-26T21:49:51.852Z,100497.36
2019-04-26T21:55:32.168Z,100515.60
2019-04-26T21:58:29.328Z,100526.39
2019-04-26T22:01:37.008Z,100527.70
2019-04-26T22:03:58.505Z,100519.27
2019-04-26T22:10:29.709Z,100523.86
2019-04-26T22:14:37.286Z,100529.61
2019-04-26T22:16:33.380Z,100524.14
2019-04-26T22:19:35.248Z,100520.46
2019-04-26T22:22:49.361Z,100524.70
2019-04-26T22:25:20.323Z,100519.19
2019-04-26T22:28:19.611Z,100514.64
2019-04-26T22:31:15.876Z,100522.88
2019-04-26T22:34:07.354Z,100524.27
2019-04-26T22:37:01.283Z,100527.72
2019-04-26T22:39:57.831Z,100524.64
2019-04-26T22:43:34.020Z,100520.69
2019-04-26T22:50:38.414Z,100517.89
2019-04-26T22:54:12.532Z,100515.98
2019-04-26T22:57:03.917Z,100511.83
2019-04-26T23:06:56.677Z,100521.16
2019-04-26T23:09:59.487Z,100515.84
2019-04-26T23:13:14.262Z,100519.91
2019-04-26T23:16:18.362Z,100515.83
2019-04-26T23:19:19.275Z,100519.53
2019-04-26T23:22:07.240Z,100518.50
2019-04-26T23:24:54.543Z,100519.61
2019-04-26T23:27:44.120Z,100523.38
2019-04-26T23:30:23.315Z,100517.98
2019-04-26T23:33:44.594Z,100523.96
2019-04-26T23:36:29.542Z,100524.05
2019-04-26T23:40:05.895Z,100535.39
2019-04-26T23:45:47.901Z,100534.88
2019-04-26T23:48:17.625Z,100525.98
2019-04-26T23:51:50.613Z,100523.34
2019-04-26T23:54:36.146Z,100512.59
2019-04-26T23:58:00.030Z,100517.52
